createdAt,value
2018-08-31T00:00:30.706Z,1002.08
2018-08-31T00:01:41.565Z,1002.1
2018-08-31T00:02:53.953Z,1002.12
2018-08-31T00:04:04.032Z,1002.08
2018-08-31T00:05:14.097Z,1002.11
2018-08-31T00:06:24.177Z,1002.08
2018-08-31T00:07:34.300Z,1002.05
2018-08-31T00:08:44.366Z,1002.04
2018-08-31T00:09:53.926Z,1002.06
2018-08-31T00:11:03.207Z,1002.04
2018-08-31T00:12:13.003Z,1002.06
2018-08-31T00:13:23.068Z,1002.04
2018-08-31T00:14:32.879Z,1002.03
2018-08-31T00:15:42.950Z,1002.03
2018-08-31T00:16:53.037Z,1002
2018-08-31T00:18:03.201Z,1002.02
2018-08-31T00:19:13.287Z,1002.01
2018-08-31T00:20:23.381Z,1001.95
2018-08-31T00:21:33.474Z,1001.98
2018-08-31T00:22:43.532Z,1002
2018-08-31T00:23:53.640Z,1001.99
2018-08-31T00:25:03.453Z,1001.95
2018-08-31T00:26:13.531Z,1001.97
2018-08-31T00:27:23.618Z,1001.98
2018-08-31T00:28:33.687Z,1001.97
2018-08-31T00:29:43.781Z,1001.98
2018-08-31T00:30:53.888Z,1001.94
2018-08-31T00:32:03.963Z,1001.92
2018-08-31T00:33:13.768Z,1001.91
2018-08-31T00:34:23.859Z,1001.92
2018-08-31T00:35:33.931Z,1001.9
2018-08-31T00:36:44.033Z,1001.91
2018-08-31T00:37:54.112Z,1001.88
2018-08-31T00:39:04.181Z,1001.9
2018-08-31T00:40:14.256Z,1001.89
2018-08-31T00:41:24.332Z,1001.87
2018-08-31T00:42:34.426Z,1001.89
2018-08-31T00:43:44.518Z,1001.86
2018-08-31T00:44:54.617Z,1001.83
2018-08-31T00:46:04.705Z,1001.89
2018-08-31T00:47:14.512Z,1001.86
2018-08-31T00:48:24.583Z,1001.86
2018-08-31T00:49:34.181Z,1001.82
2018-08-31T00:50:43.992Z,1001.87
2018-08-31T00:51:54.076Z,1001.87
2018-08-31T00:53:04.141Z,1001.86
2018-08-31T00:54:14.233Z,1001.88
2018-08-31T00:55:24.348Z,1001.9
2018-08-31T00:56:34.436Z,1001.82
2018-08-31T00:57:44.498Z,1001.85
2018-08-31T00:58:54.706Z,1001.84
2018-08-31T01:00:04.779Z,1001.83
2018-08-31T01:01:14.850Z,1001.87
2018-08-31T01:02:24.931Z,1001.9
2018-08-31T01:03:35.016Z,1001.91
2018-08-31T01:04:45.084Z,1001.88
2018-08-31T01:05:55.147Z,1001.9
2018-08-31T01:07:05.287Z,1001.88
2018-08-31T01:08:15.362Z,1001.89
2018-08-31T01:09:25.160Z,1001.89
2018-08-31T01:10:34.968Z,1001.92
2018-08-31T01:11:45.043Z,1001.88
2018-08-31T01:12:55.166Z,1001.86
2018-08-31T01:14:05.259Z,1001.84
2018-08-31T01:15:15.325Z,1001.85
2018-08-31T01:16:25.402Z,1001.82
2018-08-31T01:17:35.487Z,1001.84
2018-08-31T01:18:45.576Z,1001.82
2018-08-31T01:19:55.385Z,1001.82
2018-08-31T01:21:05.653Z,1001.86
2018-08-31T01:22:15.729Z,1001.86
2018-08-31T01:23:25.802Z,1001.88
2018-08-31T01:24:35.927Z,1001.87
2018-08-31T01:25:46.007Z,1001.83
2018-08-31T01:26:56.101Z,1001.88
2018-08-31T01:28:05.943Z,1001.87
2018-08-31T01:29:15.745Z,1001.92
2018-08-31T01:30:25.813Z,1001.9
2018-08-31T01:31:35.904Z,1001.93
2018-08-31T01:32:45.978Z,1001.95
2018-08-31T01:33:55.816Z,1001.92
2018-08-31T01:35:05.649Z,1001.87
2018-08-31T01:36:15.730Z,1001.88
2018-08-31T01:37:25.806Z,1001.89
2018-08-31T01:38:35.877Z,1001.9
2018-08-31T01:39:45.418Z,1001.93
2018-08-31T01:40:55.499Z,1001.91
2018-08-31T01:42:05.927Z,1001.93
2018-08-31T01:43:15.493Z,1001.94
2018-08-31T01:44:25.580Z,1001.95
2018-08-31T01:45:35.392Z,1001.95
2018-08-31T01:46:45.444Z,1001.92
2018-08-31T01:47:55.523Z,1001.96
2018-08-31T01:49:05.680Z,1001.95
2018-08-31T01:50:15.742Z,1001.94
2018-08-31T01:51:25.813Z,1001.95
2018-08-31T01:52:35.676Z,1001.97
2018-08-31T01:53:46.065Z,1001.89
2018-08-31T01:54:56.124Z,1001.93
2018-08-31T01:56:06.213Z,1001.92
2018-08-31T01:57:16.294Z,1001.94
2018-08-31T01:58:26.376Z,1001.97
2018-08-31T01:59:36.187Z,1001.92
2018-08-31T02:00:46.256Z,1001.91
2018-08-31T02:01:56.311Z,1001.91
2018-08-31T02:03:06.126Z,1001.92
2018-08-31T02:04:16.270Z,1001.92
2018-08-31T02:05:26.601Z,1001.91
2018-08-31T02:06:36.730Z,1001.89
2018-08-31T02:07:46.820Z,1001.89
2018-08-31T02:08:56.890Z,1001.89
2018-08-31T02:10:06.709Z,1001.93
2018-08-31T02:11:16.799Z,1001.94
2018-08-31T02:12:26.866Z,1001.9
2018-08-31T02:13:36.654Z,1001.93
2018-08-31T02:14:46.718Z,1001.94
2018-08-31T02:15:56.804Z,1001.91
2018-08-31T02:17:07.125Z,1001.93
2018-08-31T02:18:17.206Z,1001.84
2018-08-31T02:19:27.276Z,1001.87
2018-08-31T02:20:37.076Z,1001.84
2018-08-31T02:21:47.131Z,1001.82
2018-08-31T02:22:57.267Z,1001.82
2018-08-31T02:24:07.341Z,1001.79
2018-08-31T02:25:17.411Z,1001.79
2018-08-31T02:26:27.478Z,1001.76
2018-08-31T02:27:37.297Z,1001.75
2018-08-31T02:28:47.144Z,1001.73
2018-08-31T02:29:57.210Z,1001.7
2018-08-31T02:31:07.280Z,1001.73
2018-08-31T02:32:17.344Z,1001.78
2018-08-31T02:33:27.414Z,1001.78
2018-08-31T02:34:37.496Z,1001.74
2018-08-31T02:35:47.296Z,1001.73
2018-08-31T02:36:57.360Z,1001.71
2018-08-31T02:38:07.427Z,1001.75
2018-08-31T02:39:17.579Z,1001.71
2018-08-31T02:40:27.740Z,1001.75
2018-08-31T02:41:37.542Z,1001.77
2018-08-31T02:42:47.622Z,1001.74
2018-08-31T02:43:57.710Z,1001.73
2018-08-31T02:45:07.779Z,1001.73
2018-08-31T02:46:17.887Z,1001.73
2018-08-31T02:47:27.958Z,1001.76
2018-08-31T02:48:38.033Z,1001.73
2018-08-31T02:49:48.110Z,1001.71
2018-08-31T02:50:58.324Z,1001.72
2018-08-31T02:52:08.443Z,1001.66
2018-08-31T02:53:18.542Z,1001.71
2018-08-31T02:54:28.604Z,1001.69
2018-08-31T02:55:38.412Z,1001.72
2018-08-31T02:56:48.485Z,1001.69
2018-08-31T02:57:58.611Z,1001.68
2018-08-31T02:59:08.690Z,1001.65
2018-08-31T03:00:18.779Z,1001.67
2018-08-31T03:01:28.856Z,1001.64
2018-08-31T03:02:38.933Z,1001.67
2018-08-31T03:34:50.039Z,1001.59
2018-08-31T03:35:59.862Z,1001.59
2018-08-31T03:37:09.917Z,1001.63
2018-08-31T03:38:19.717Z,1001.64
2018-08-31T03:39:29.791Z,1001.63
2018-08-31T03:40:39.858Z,1001.64
2018-08-31T03:41:49.936Z,1001.69
2018-08-31T03:43:00.046Z,1001.73
2018-08-31T03:44:10.124Z,1001.72
2018-08-31T03:45:19.937Z,1001.7
2018-08-31T03:46:30.017Z,1001.68
2018-08-31T03:47:40.095Z,1001.64
2018-08-31T03:48:49.902Z,1001.64
2018-08-31T03:49:59.198Z,1001.66
2018-08-31T03:51:08.751Z,1001.68
2018-08-31T03:52:18.902Z,1001.68
2018-08-31T03:53:28.709Z,1001.67
2018-08-31T03:54:38.818Z,1001.67
2018-08-31T03:55:48.905Z,1001.72
2018-08-31T03:56:59.023Z,1001.69
2018-08-31T03:58:09.101Z,1001.68
2018-08-31T03:59:18.951Z,1001.69
2018-08-31T04:00:29.027Z,1001.68
2018-08-31T04:01:38.893Z,1001.7
2018-08-31T04:02:48.753Z,1001.72
2018-08-31T04:03:58.823Z,1001.7
2018-08-31T04:05:08.897Z,1001.76
2018-08-31T04:06:18.998Z,1001.76
2018-08-31T04:07:28.809Z,1001.73
2018-08-31T04:08:38.887Z,1001.81
2018-08-31T04:09:48.957Z,1001.79
2018-08-31T04:10:59.018Z,1001.85
2018-08-31T04:12:09.102Z,1001.82
2018-08-31T04:13:19.164Z,1001.84
2018-08-31T04:14:29.249Z,1001.86
2018-08-31T04:15:39.340Z,1001.88
2018-08-31T04:16:49.405Z,1001.93
2018-08-31T04:17:59.481Z,1001.92
2018-08-31T04:19:09.288Z,1001.93
2018-08-31T04:20:19.425Z,1001.97
2018-08-31T04:21:29.536Z,1001.93
2018-08-31T04:22:39.624Z,1001.98
2018-08-31T04:23:49.696Z,1001.95
2018-08-31T04:24:59.833Z,1001.97
2018-08-31T04:26:09.373Z,1001.9
2018-08-31T04:27:18.910Z,1001.91
2018-08-31T04:28:28.724Z,1001.93
2018-08-31T04:29:38.797Z,1001.92
2018-08-31T04:30:48.866Z,1001.94
2018-08-31T04:31:58.930Z,1001.94
2018-08-31T04:33:08.578Z,1001.96
2018-08-31T04:34:18.664Z,1002
2018-08-31T04:35:28.464Z,1002.04
2018-08-31T04:36:38.289Z,1002.03
2018-08-31T04:37:48.359Z,1002.03
2018-08-31T04:38:58.440Z,1001.97
2018-08-31T04:40:08.562Z,1002.05
2018-08-31T04:41:18.388Z,1002.11
2018-08-31T04:42:28.478Z,1002.15
2018-08-31T04:43:38.617Z,1002.18
2018-08-31T04:44:48.426Z,1002.16
2018-08-31T04:45:58.484Z,1002.13
2018-08-31T04:47:08.569Z,1002.14
2018-08-31T04:48:17.855Z,1002.15
2018-08-31T04:49:27.405Z,1002.15
2018-08-31T04:50:37.231Z,1002.13
2018-08-31T04:51:47.312Z,1002.11
2018-08-31T04:52:56.852Z,1002.14
2018-08-31T04:54:06.672Z,1002.15
2018-08-31T04:55:16.473Z,1002.19
2018-08-31T04:56:26.624Z,1002.13
2018-08-31T04:57:36.704Z,1002.21
2018-08-31T04:58:46.792Z,1002.2
2018-08-31T04:59:57.248Z,1002.15
2018-08-31T05:01:06.803Z,1002.2
2018-08-31T05:02:16.952Z,1002.19
2018-08-31T05:03:27.028Z,1002.17
2018-08-31T05:04:37.113Z,1002.21
2018-08-31T05:05:47.184Z,1002.21
2018-08-31T05:06:57.258Z,1002.22
2018-08-31T05:08:07.072Z,1002.18
2018-08-31T05:09:16.629Z,1002.2
2018-08-31T05:10:26.461Z,1002.19
2018-08-31T05:11:36.519Z,1002.19
2018-08-31T05:12:46.345Z,1002.19
2018-08-31T05:13:56.511Z,1002.21
2018-08-31T05:15:06.600Z,1002.16
2018-08-31T05:16:16.700Z,1002.18
2018-08-31T05:17:26.763Z,1002.13
2018-08-31T05:18:36.578Z,1002.09
2018-08-31T05:19:46.694Z,1002.13
2018-08-31T05:20:56.770Z,1002.12
2018-08-31T05:22:06.562Z,1002.09
2018-08-31T05:23:16.483Z,1002.06
2018-08-31T05:24:26.572Z,1002.08
2018-08-31T05:25:36.703Z,1002
2018-08-31T05:26:46.275Z,1001.93
2018-08-31T05:27:56.346Z,1001.94
2018-08-31T05:29:06.158Z,1001.98
2018-08-31T05:30:16.260Z,1001.96
2018-08-31T05:31:26.087Z,1001.95
2018-08-31T05:32:36.173Z,1001.95
2018-08-31T05:33:46.242Z,1001.98
2018-08-31T05:34:56.314Z,1001.96
2018-08-31T05:36:06.135Z,1001.96
2018-08-31T05:37:16.017Z,1002.08
2018-08-31T05:38:26.089Z,1002.15
2018-08-31T05:39:36.169Z,1002.11
2018-08-31T05:40:46.243Z,1002.15
2018-08-31T05:41:56.084Z,1002.1
2018-08-31T05:43:06.258Z,1002.02
2018-08-31T05:44:16.341Z,1001.95
2018-08-31T05:45:26.433Z,1002
2018-08-31T05:46:36.268Z,1002.03
2018-08-31T05:47:46.337Z,1002.04
2018-08-31T05:48:56.431Z,1002.08
2018-08-31T05:50:06.505Z,1002.08
2018-08-31T05:51:16.569Z,1002.05
2018-08-31T05:52:26.648Z,1002.01
2018-08-31T05:53:36.816Z,1002.05
2018-08-31T05:54:46.911Z,1002.04
2018-08-31T05:55:56.973Z,1002.06
2018-08-31T05:57:06.805Z,1002.08
2018-08-31T05:58:16.632Z,1002.01
2018-08-31T05:59:26.444Z,1002
2018-08-31T06:00:36.560Z,1001.97
2018-08-31T06:01:46.109Z,1001.98
2018-08-31T06:02:55.928Z,1002.04
2018-08-31T06:04:06.009Z,1002.13
2018-08-31T06:05:15.853Z,1002.15
2018-08-31T06:06:25.920Z,1002.18
2018-08-31T06:07:35.989Z,1002.12
2018-08-31T06:08:45.803Z,1002.15
2018-08-31T06:09:55.884Z,1002.16
2018-08-31T06:11:05.960Z,1002.22
2018-08-31T06:12:16.135Z,1002.24
2018-08-31T06:13:26.215Z,1002.26
2018-08-31T06:14:36.025Z,1002.25
2018-08-31T06:15:46.118Z,1002.22
2018-08-31T06:16:56.196Z,1002.23
2018-08-31T06:18:06.330Z,1002.23
2018-08-31T06:19:16.394Z,1002.23
2018-08-31T06:20:26.225Z,1002.25
2018-08-31T06:21:36.032Z,1002.24
2018-08-31T06:22:46.109Z,1002.21
2018-08-31T06:23:56.175Z,1002.2
2018-08-31T06:25:05.974Z,1002.21
2018-08-31T06:26:16.082Z,1002.2
2018-08-31T06:27:26.182Z,1002.2
2018-08-31T06:28:36.040Z,1002.22
2018-08-31T06:29:46.136Z,1002.24
2018-08-31T06:30:56.227Z,1002.27
2018-08-31T06:32:06.297Z,1002.27
2018-08-31T06:33:16.364Z,1002.32
2018-08-31T06:34:26.441Z,1002.29
2018-08-31T06:35:36.545Z,1002.26
2018-08-31T06:36:46.618Z,1002.24
2018-08-31T06:37:56.713Z,1002.23
2018-08-31T06:39:06.804Z,1002.21
2018-08-31T06:40:16.883Z,1002.22
2018-08-31T06:41:26.756Z,1002.24
2018-08-31T06:42:36.822Z,1002.27
2018-08-31T06:43:46.899Z,1002.25
2018-08-31T06:44:56.974Z,1002.21
2018-08-31T06:46:07.049Z,1002.2
2018-08-31T06:47:17.136Z,1002.19
2018-08-31T06:48:27.203Z,1002.16
2018-08-31T06:49:37.270Z,1002.22
2018-08-31T06:50:47.333Z,1002.19
2018-08-31T06:51:57.411Z,1002.2
2018-08-31T06:53:07.289Z,1002.2
2018-08-31T06:54:17.358Z,1002.23
2018-08-31T06:55:27.440Z,1002.18
2018-08-31T06:56:37.522Z,1002.14
2018-08-31T06:57:47.621Z,1002.14
2018-08-31T06:58:57.711Z,1002.14
2018-08-31T07:00:08.049Z,1002.12
2018-08-31T07:01:18.138Z,1002.18
2018-08-31T07:02:28.207Z,1002.11
2018-08-31T07:03:38.309Z,1002.12
2018-08-31T07:04:48.696Z,1002.12
2018-08-31T07:05:58.763Z,1002.11
2018-08-31T07:07:08.564Z,1002.14
2018-08-31T07:08:18.636Z,1002.11
2018-08-31T07:09:28.707Z,1002.06
2018-08-31T07:10:38.573Z,1002.04
2018-08-31T07:11:48.674Z,1002.04
2018-08-31T07:12:58.753Z,1002.05
2018-08-31T07:14:08.594Z,1002
2018-08-31T07:15:18.700Z,1002.04
2018-08-31T07:16:28.511Z,1002.02
2018-08-31T07:17:38.581Z,1002.04
2018-08-31T07:18:48.655Z,1002.02
2018-08-31T07:19:58.736Z,1002.04
2018-08-31T07:21:08.821Z,1002.01
2018-08-31T07:22:18.892Z,1002.04
2018-08-31T07:23:28.975Z,1002.03
2018-08-31T07:24:39.073Z,1002.03
2018-08-31T07:25:49.271Z,1002.01
2018-08-31T07:26:59.361Z,1002.07
2018-08-31T07:28:09.439Z,1002.07
2018-08-31T07:29:19.522Z,1002.06
2018-08-31T07:30:29.600Z,1002.05
2018-08-31T07:31:39.419Z,1002.07
2018-08-31T07:32:49.523Z,1002.07
2018-08-31T07:33:59.650Z,1002.07
2018-08-31T07:35:09.737Z,1002.09
2018-08-31T07:36:19.927Z,1002.08
2018-08-31T07:37:30.328Z,1002.04
2018-08-31T07:38:40.141Z,1002.05
2018-08-31T07:39:50.284Z,1002.01
2018-08-31T07:41:00.535Z,1002.01
2018-08-31T07:42:12.435Z,1002.03
2018-08-31T07:43:25.124Z,1002.05
2018-08-31T07:44:37.522Z,1002.04
2018-08-31T07:45:49.979Z,1002.08
2018-08-31T07:47:01.541Z,1002.06
2018-08-31T07:48:13.056Z,1002.09
2018-08-31T07:49:25.408Z,1002.06
2018-08-31T07:50:37.610Z,1002.03
2018-08-31T07:51:49.706Z,1002.03
2018-08-31T07:53:01.063Z,1002.07
2018-08-31T07:54:13.407Z,1002.06
2018-08-31T07:55:24.706Z,1002.09
2018-08-31T07:56:36.411Z,1002.06
2018-08-31T07:57:48.570Z,1002.1
2018-08-31T07:58:58.659Z,1002.09
2018-08-31T08:00:08.786Z,1002.1
2018-08-31T08:01:18.920Z,1002.09
2018-08-31T08:02:29.028Z,1002.06
2018-08-31T08:03:39.512Z,1002
2018-08-31T08:04:49.618Z,1001.98
2018-08-31T08:05:59.732Z,1001.93
2018-08-31T08:07:09.868Z,1001.92
2018-08-31T08:08:20.175Z,1001.94
2018-08-31T08:09:30.269Z,1001.89
2018-08-31T08:10:40.436Z,1001.9
2018-08-31T08:11:50.004Z,1001.88
2018-08-31T08:12:59.879Z,1001.86
2018-08-31T08:14:09.571Z,1001.83
2018-08-31T08:15:19.415Z,1001.84
2018-08-31T08:16:29.519Z,1001.87
2018-08-31T08:17:39.618Z,1001.89
2018-08-31T08:18:49.704Z,1001.9
2018-08-31T08:19:59.847Z,1001.93
2018-08-31T08:21:09.975Z,1001.88
2018-08-31T08:22:20.301Z,1001.96
2018-08-31T08:23:30.705Z,1001.97
2018-08-31T08:24:40.770Z,1001.96
2018-08-31T08:25:50.913Z,1001.96
2018-08-31T08:27:00.981Z,1001.92
2018-08-31T08:28:11.122Z,1001.88
2018-08-31T08:29:21.634Z,1001.84
2018-08-31T08:30:31.499Z,1001.82
2018-08-31T08:31:41.655Z,1001.82
2018-08-31T08:32:51.759Z,1001.8
2018-08-31T08:34:02.273Z,1001.74
2018-08-31T08:35:12.147Z,1001.7
2018-08-31T08:36:22.254Z,1001.72
2018-08-31T08:37:32.408Z,1001.68
2018-08-31T08:38:42.224Z,1001.71
2018-08-31T08:39:52.052Z,1001.67
2018-08-31T08:41:02.185Z,1001.66
2018-08-31T08:42:12.398Z,1001.7
2018-08-31T08:43:22.430Z,1001.68
2018-08-31T08:44:32.544Z,1001.67
2018-08-31T08:45:42.630Z,1001.72
2018-08-31T08:46:52.732Z,1001.75
2018-08-31T08:48:02.806Z,1001.76
2018-08-31T08:49:12.853Z,1001.76
2018-08-31T08:50:22.953Z,1001.73
2018-08-31T08:51:32.780Z,1001.76
2018-08-31T08:52:42.887Z,1001.71
2018-08-31T08:53:52.709Z,1001.67
2018-08-31T08:55:02.857Z,1001.64
2018-08-31T08:56:27.614Z,1001.72
2018-08-31T08:57:37.721Z,1001.7
2018-08-31T08:58:47.829Z,1001.72
2018-08-31T08:59:57.957Z,1001.72
2018-08-31T09:01:23.149Z,1001.76
2018-08-31T09:02:33.010Z,1001.77
2018-08-31T09:03:42.863Z,1001.76
2018-08-31T09:04:52.971Z,1001.71
2018-08-31T09:06:03.043Z,1001.75
2018-08-31T09:07:13.130Z,1001.73
2018-08-31T09:08:23.273Z,1001.73
2018-08-31T09:09:33.132Z,1001.68
2018-08-31T09:18:56.668Z,1001.69
2018-08-31T09:20:06.816Z,1001.67
2018-08-31T09:21:16.858Z,1001.64
2018-08-31T09:22:26.943Z,1001.59
2018-08-31T09:23:36.828Z,1001.59
2018-08-31T09:24:46.829Z,1001.55
2018-08-31T09:25:56.665Z,1001.59
2018-08-31T09:27:06.510Z,1001.57
2018-08-31T09:28:16.632Z,1001.61
2018-08-31T09:29:26.930Z,1001.58
2018-08-31T09:30:37.057Z,1001.54
2018-08-31T09:31:46.899Z,1001.53
2018-08-31T09:32:57.007Z,1001.54
2018-08-31T09:34:07.094Z,1001.56
2018-08-31T09:35:16.651Z,1001.52
2018-08-31T09:36:26.466Z,1001.53
2018-08-31T09:37:36.556Z,1001.59
2018-08-31T09:38:46.362Z,1001.58
2018-08-31T09:39:56.508Z,1001.61
2018-08-31T09:41:06.593Z,1001.66
2018-08-31T09:42:16.681Z,1001.68
2018-08-31T09:43:26.483Z,1001.71
2018-08-31T09:44:36.583Z,1001.71
2018-08-31T09:45:46.702Z,1001.69
2018-08-31T09:46:56.845Z,1001.69
2018-08-31T09:48:06.711Z,1001.68
2018-08-31T09:49:16.534Z,1001.68
2018-08-31T09:50:26.626Z,1001.63
2018-08-31T09:51:36.794Z,1001.63
2018-08-31T09:52:46.995Z,1001.64
2018-08-31T09:53:56.294Z,1001.61
2018-08-31T09:55:06.425Z,1001.56
2018-08-31T09:56:16.540Z,1001.57
2018-08-31T09:57:26.696Z,1001.57
2018-08-31T09:58:37.270Z,1001.59
2018-08-31T09:59:47.367Z,1001.57
2018-08-31T10:00:57.479Z,1001.56
2018-08-31T10:02:07.304Z,1001.62
2018-08-31T10:03:17.115Z,1001.55
2018-08-31T10:04:27.204Z,1001.54
2018-08-31T10:05:37.046Z,1001.48
2018-08-31T10:06:47.148Z,1001.47
2018-08-31T10:07:57.249Z,1001.52
2018-08-31T10:09:07.328Z,1001.46
2018-08-31T10:10:17.174Z,1001.51
2018-08-31T10:11:27.327Z,1001.51
2018-08-31T10:12:37.426Z,1001.48
2018-08-31T10:13:47.501Z,1001.51
2018-08-31T10:14:57.571Z,1001.49
2018-08-31T10:16:07.381Z,1001.46
2018-08-31T10:17:17.479Z,1001.48
2018-08-31T10:18:27.618Z,1001.48
2018-08-31T10:19:37.566Z,1001.5
2018-08-31T10:20:47.657Z,1001.51
2018-08-31T10:21:57.739Z,1001.5
2018-08-31T10:23:07.567Z,1001.5
2018-08-31T10:24:17.753Z,1001.5
2018-08-31T10:25:27.879Z,1001.51
2018-08-31T10:26:37.964Z,1001.51
2018-08-31T10:27:48.040Z,1001.53
2018-08-31T10:28:57.855Z,1001.53
2018-08-31T10:30:07.927Z,1001.53
2018-08-31T10:31:17.897Z,1001.53
2018-08-31T10:32:27.980Z,1001.53
2018-08-31T10:33:38.066Z,1001.5
2018-08-31T10:34:48.179Z,1001.5
2018-08-31T10:35:58.281Z,1001.44
2018-08-31T10:37:08.641Z,1001.44
2018-08-31T10:38:18.738Z,1001.48
2018-08-31T10:39:28.826Z,1001.48
2018-08-31T10:40:38.923Z,1001.49
2018-08-31T10:41:48.754Z,1001.48
2018-08-31T10:42:58.594Z,1001.51
2018-08-31T10:44:08.700Z,1001.52
2018-08-31T10:45:18.785Z,1001.48
2018-08-31T10:46:28.387Z,1001.48
2018-08-31T10:47:39.075Z,1001.49
2018-08-31T10:48:49.168Z,1001.46
2018-08-31T10:49:59.289Z,1001.42
2018-08-31T10:51:09.401Z,1001.41
2018-08-31T10:52:19.504Z,1001.38
2018-08-31T10:53:29.704Z,1001.34
2018-08-31T10:54:39.799Z,1001.35
2018-08-31T10:55:49.896Z,1001.31
2018-08-31T10:57:00.486Z,1001.3
2018-08-31T10:58:10.597Z,1001.29
2018-08-31T10:59:20.426Z,1001.27
2018-08-31T11:00:30.536Z,1001.24
2018-08-31T11:01:40.661Z,1001.25
2018-08-31T11:02:50.951Z,1001.25
2018-08-31T11:04:01.405Z,1001.23
2018-08-31T11:05:11.222Z,1001.28
2018-08-31T11:06:21.311Z,1001.26
2018-08-31T11:07:31.149Z,1001.26
2018-08-31T11:08:40.983Z,1001.22
2018-08-31T11:09:50.839Z,1001.21
2018-08-31T11:11:00.964Z,1001.18
2018-08-31T11:12:11.052Z,1001.17
2018-08-31T11:13:21.155Z,1001.15
2018-08-31T11:14:31.002Z,1001.19
2018-08-31T11:15:41.175Z,1001.17
2018-08-31T11:16:51.251Z,1001.18
2018-08-31T11:18:01.360Z,1001.22
2018-08-31T11:19:11.201Z,1001.22
2018-08-31T11:20:21.312Z,1001.21
2018-08-31T11:21:31.413Z,1001.19
2018-08-31T11:22:41.510Z,1001.18
2018-08-31T11:23:51.689Z,1001.17
2018-08-31T11:25:01.867Z,1001.15
2018-08-31T11:26:11.990Z,1001.11
2018-08-31T11:27:22.095Z,1001.11
2018-08-31T11:28:31.925Z,1001.09
2018-08-31T11:29:42.016Z,1001.07
2018-08-31T11:30:52.106Z,1001.08
2018-08-31T11:32:01.958Z,1001.06
2018-08-31T11:33:12.132Z,1001.06
2018-08-31T11:34:22.245Z,1001.07
2018-08-31T11:35:32.364Z,1000.98
2018-08-31T11:36:41.954Z,1001.03
2018-08-31T11:37:52.159Z,1000.96
2018-08-31T11:39:02.076Z,1000.98
2018-08-31T11:40:11.939Z,1000.99
2018-08-31T11:41:22.117Z,1000.98
2018-08-31T11:42:31.698Z,1000.94
2018-08-31T11:43:41.275Z,1000.91
2018-08-31T11:44:51.381Z,1000.92
2018-08-31T11:46:01.688Z,1000.9
2018-08-31T11:47:11.551Z,1000.88
2018-08-31T11:48:21.555Z,1000.85
2018-08-31T11:49:31.721Z,1000.81
2018-08-31T11:50:41.633Z,1000.8
2018-08-31T11:51:51.789Z,1000.8
2018-08-31T11:53:01.662Z,1000.79
2018-08-31T11:54:11.906Z,1000.78
2018-08-31T11:55:21.864Z,1000.79
2018-08-31T11:56:32.210Z,1000.82
2018-08-31T11:57:42.307Z,1000.78
2018-08-31T11:58:52.413Z,1000.83
2018-08-31T12:00:02.545Z,1000.8
2018-08-31T12:01:12.698Z,1000.82
2018-08-31T12:02:23.096Z,1000.77
2018-08-31T12:03:33.182Z,1000.83
2018-08-31T12:04:43.309Z,1000.78
2018-08-31T12:05:53.395Z,1000.76
2018-08-31T12:07:03.251Z,1000.75
2018-08-31T12:08:13.366Z,1000.77
2018-08-31T12:09:23.464Z,1000.72
2018-08-31T12:10:33.566Z,1000.75
2018-08-31T12:11:43.726Z,1000.7
2018-08-31T12:12:53.643Z,1000.67
2018-08-31T12:14:03.738Z,1000.7
2018-08-31T12:15:13.554Z,1000.64
2018-08-31T12:16:23.384Z,1000.6
2018-08-31T12:17:33.459Z,1000.56
2018-08-31T12:18:43.598Z,1000.54
2018-08-31T12:19:53.708Z,1000.51
2018-08-31T12:21:03.784Z,1000.48
2018-08-31T12:22:14.008Z,1000.51
2018-08-31T12:23:24.154Z,1000.49
2018-08-31T12:24:34.239Z,1000.48
2018-08-31T12:25:44.363Z,1000.48
2018-08-31T12:26:54.206Z,1000.48
2018-08-31T12:28:04.319Z,1000.48
2018-08-31T12:29:14.414Z,1000.47
2018-08-31T12:30:24.819Z,1000.52
2018-08-31T12:31:34.643Z,1000.46
2018-08-31T12:32:44.744Z,1000.44
2018-08-31T12:33:54.834Z,1000.48
2018-08-31T12:35:04.928Z,1000.52
2018-08-31T12:36:14.764Z,1000.53
2018-08-31T12:37:24.898Z,1000.51
2018-08-31T12:38:35.021Z,1000.48
2018-08-31T12:39:44.843Z,1000.51
2018-08-31T12:40:54.677Z,1000.47
2018-08-31T12:42:04.759Z,1000.43
2018-08-31T12:43:14.577Z,1000.5
2018-08-31T12:44:24.689Z,1000.5
2018-08-31T12:45:34.535Z,1000.5
2018-08-31T12:46:44.386Z,1000.53
2018-08-31T12:47:54.510Z,1000.54
2018-08-31T12:49:04.620Z,1000.48
2018-08-31T12:50:14.725Z,1000.44
2018-08-31T12:51:24.543Z,1000.49
2018-08-31T12:52:34.642Z,1000.42
2018-08-31T12:53:44.735Z,1000.5
2018-08-31T12:54:54.592Z,1000.5
2018-08-31T12:56:04.425Z,1000.49
2018-08-31T12:57:14.527Z,1000.49
2018-08-31T12:58:24.650Z,1000.47
2018-08-31T12:59:34.810Z,1000.41
2018-08-31T13:00:44.669Z,1000.37
2018-08-31T13:01:54.755Z,1000.37
2018-08-31T13:03:04.880Z,1000.36
2018-08-31T13:04:15.008Z,1000.37
2018-08-31T13:05:24.875Z,1000.37
2018-08-31T13:06:35.257Z,1000.37
2018-08-31T13:07:45.427Z,1000.33
2018-08-31T13:08:55.526Z,1000.34
2018-08-31T13:10:05.719Z,1000.29
2018-08-31T13:11:15.880Z,1000.31
2018-08-31T13:12:25.985Z,1000.28
2018-08-31T13:13:36.324Z,1000.27
2018-08-31T13:14:46.444Z,1000.25
2018-08-31T13:15:56.587Z,1000.26
2018-08-31T13:17:06.494Z,1000.19
2018-08-31T13:18:16.597Z,1000.16
2018-08-31T13:19:26.720Z,1000.18
2018-08-31T13:20:36.559Z,1000.14
2018-08-31T13:21:46.683Z,1000.16
2018-08-31T13:22:56.836Z,1000.17
2018-08-31T13:24:06.662Z,1000.18
2018-08-31T13:25:16.799Z,1000.15
2018-08-31T13:26:26.997Z,1000.19
2018-08-31T13:27:37.147Z,1000.16
2018-08-31T13:28:47.304Z,1000.17
2018-08-31T13:29:57.398Z,1000.13
2018-08-31T13:31:07.562Z,1000.14
2018-08-31T13:32:18.236Z,1000.16
2018-08-31T13:33:28.325Z,1000.15
2018-08-31T13:34:38.720Z,1000.14
2018-08-31T13:35:48.842Z,1000.15
2018-08-31T13:36:58.930Z,1000.18
2018-08-31T13:38:09.048Z,1000.14
2018-08-31T13:39:19.096Z,1000.14
2018-08-31T13:40:29.257Z,1000.11
2018-08-31T13:41:39.089Z,1000.16
2018-08-31T13:42:49.241Z,1000.11
2018-08-31T13:43:59.150Z,1000.11
2018-08-31T13:45:09.600Z,1000.09
2018-08-31T13:46:19.770Z,1000.1
2018-08-31T13:47:29.344Z,1000.11
2018-08-31T13:48:39.174Z,1000.15
2018-08-31T13:49:49.292Z,1000.1
2018-08-31T13:50:59.418Z,1000.13
2018-08-31T13:52:09.304Z,1000.14
2018-08-31T13:53:19.388Z,1000.15
2018-08-31T13:54:29.240Z,1000.14
2018-08-31T13:55:39.058Z,1000.21
2018-08-31T13:56:48.885Z,1000.17
2018-08-31T13:57:58.813Z,1000.16
2018-08-31T13:59:08.644Z,1000.15
2018-08-31T14:00:18.796Z,1000.14
2018-08-31T14:01:28.394Z,1000.14
2018-08-31T14:02:38.759Z,1000.12
2018-08-31T14:03:48.659Z,1000.1
2018-08-31T14:04:58.926Z,1000.1
2018-08-31T14:06:09.029Z,1000.07
2018-08-31T14:07:19.141Z,1000.12
2018-08-31T14:08:29.222Z,1000.06
2018-08-31T14:09:39.344Z,1000.1
2018-08-31T14:10:49.471Z,1000.08
2018-08-31T14:11:59.571Z,1000.05
2018-08-31T14:13:09.404Z,1000.05
2018-08-31T14:14:19.242Z,999.99
2018-08-31T14:15:29.239Z,1000
2018-08-31T14:16:39.350Z,999.97
2018-08-31T14:17:49.644Z,999.99
2018-08-31T14:18:59.483Z,1000.03
2018-08-31T14:20:09.561Z,1000.05
2018-08-31T14:21:19.658Z,1000.01
2018-08-31T14:22:29.748Z,1000
2018-08-31T14:23:39.325Z,1000.06
2018-08-31T14:24:49.416Z,1000.01
2018-08-31T14:25:59.523Z,1000.02
2018-08-31T14:27:09.669Z,1000.02
2018-08-31T14:28:19.509Z,999.98
2018-08-31T14:29:29.690Z,999.99
2018-08-31T14:30:40.179Z,999.99
2018-08-31T14:31:50.303Z,999.98
2018-08-31T14:32:59.864Z,999.95
2018-08-31T14:34:09.999Z,999.98
2018-08-31T14:35:19.867Z,999.93
2018-08-31T14:36:29.701Z,999.95
2018-08-31T14:37:40.374Z,999.94
2018-08-31T14:38:50.469Z,999.97
2018-08-31T14:40:00.297Z,999.91
2018-08-31T14:41:10.138Z,999.91
2018-08-31T14:42:19.963Z,999.91
2018-08-31T14:43:30.570Z,999.91
2018-08-31T14:44:40.398Z,999.89
2018-08-31T14:45:50.502Z,999.92
2018-08-31T14:47:00.606Z,999.83
2018-08-31T14:48:10.699Z,999.82
2018-08-31T14:49:20.535Z,999.82
2018-08-31T14:50:30.670Z,999.83
2018-08-31T14:51:41.032Z,999.78